Gemmell, Minnesota
Current Conditions -  °F | °C
As of 2:31 PM on Monday 24 Nov 2014 (Local Time) from KVWU Reporting Station
Light Snow Light Snow  
Wind Chill: -18°   Ceiling: 1600
Heat Index: -10°   Visibility: 4mi
Dew Point: -12°   Wind: 13mph
Humidity: 86%   Direction: 320°NW
Pressure: 29.68"   Gusts: 17mph
Location:  47.9892°N, 94.2138°W
Report Text: KVWU 242031Z AUTO 32011G15KT 4SM -SN OVC016 M10/M12 A2968 RMK AO2
Loading
Personal Weather Stations






























Interactive Weather Map New forecast layout! Learn more

10-Day Weather Forecast

Advertisements
Track Severe Weather on mobile